YXWW weather

Wee Waa Hospital Helipad
Wee Waa, New South Wales, Australia

Public forecast

Using degrees Celsius for public forecast. Weather courtesy of forecast.io.

Closest aviation weather report (METAR) to Wee Waa Hospital Helipad

Closest report is Narrabri Airport, 20.4 nm (37.8 km) ESE. Retrieved 2019/12/06 17:00 UTC (48 minutes ago):

YNBR 061700Z AUTO 18004KT 9999 // NCD 20/M03 Q1010

Closest aviation forecast (TAF) to Wee Waa Hospital Helipad

Closest forecast is Tamworth Airport, 88.8 nm (164.4 km) SE. Retrieved 2019/12/06 12:36 UTC (5 hours ago):

TAF YSTW 061059Z 0612/0706 20007KT CAVOK FM061400 15005KT CAVOK FM062200 24008KT CAVOK